createdAt,value
2023-05-15T00:00:14.410Z,9.65
2023-05-15T00:03:04.137Z,10.30
2023-05-15T00:05:43.398Z,9.38
2023-05-15T00:08:49.158Z,10.85
2023-05-15T00:11:54.292Z,11.35
2023-05-15T00:14:32.974Z,11.20
2023-05-15T00:18:01.118Z,9.27
2023-05-15T00:20:41.086Z,10.73
2023-05-15T00:24:07.230Z,10.50
2023-05-15T00:27:13.919Z,12.00
2023-05-15T00:30:00.625Z,11.50
2023-05-15T00:32:32.399Z,12.20
2023-05-15T00:35:33.840Z,10.48
2023-05-15T00:38:20.801Z,11.07
2023-05-15T00:40:55.582Z,10.43
2023-05-15T00:43:40.651Z,11.50
2023-05-15T00:46:11.048Z,10.77
2023-05-15T00:48:50.027Z,12.45
2023-05-15T00:51:30.142Z,12.40
2023-05-15T00:54:16.640Z,12.68
2023-05-15T00:56:54.840Z,10.88
2023-05-15T00:59:37.606Z,12.43
2023-05-15T01:05:20.629Z,11.05
2023-05-15T01:08:09.973Z,13.30
2023-05-15T01:10:43.290Z,11.95
2023-05-15T01:13:15.805Z,10.73
2023-05-15T01:15:45.526Z,13.15
2023-05-15T01:18:13.942Z,14.55
2023-05-15T01:20:54.847Z,10.50
2023-05-15T01:23:44.471Z,12.85
2023-05-15T01:26:48.813Z,12.52
2023-05-15T01:29:28.281Z,12.73
2023-05-15T01:32:04.884Z,14.60
2023-05-15T01:37:08.562Z,15.10
2023-05-15T01:39:42.532Z,12.80
2023-05-15T01:42:17.087Z,13.05
2023-05-15T01:44:53.340Z,12.65
2023-05-15T01:47:27.491Z,12.60
2023-05-15T01:50:00.611Z,13.07
2023-05-15T01:52:35.169Z,12.77
2023-05-15T01:55:06.386Z,12.68
2023-05-15T01:57:38.873Z,16.58
2023-05-15T02:00:14.144Z,12.40
2023-05-15T02:02:43.556Z,16.13
2023-05-15T02:05:14.147Z,14.85
2023-05-15T02:07:52.234Z,14.93
2023-05-15T02:10:29.582Z,13.68
2023-05-15T02:13:06.712Z,13.90
2023-05-15T02:15:47.846Z,11.98
2023-05-15T02:18:46.708Z,15.73
2023-05-15T02:21:41.914Z,13.65
2023-05-15T02:24:18.445Z,14.48
2023-05-15T02:26:58.198Z,15.60
2023-05-15T02:29:40.716Z,16.27
2023-05-15T02:32:30.342Z,14.63
2023-05-15T02:35:11.575Z,16.23
2023-05-15T02:38:13.852Z,15.55
2023-05-15T02:40:58.155Z,13.65
2023-05-15T02:43:31.125Z,14.68
2023-05-15T02:46:39.400Z,14.82
2023-05-15T02:49:43.158Z,14.82
2023-05-15T02:55:42.928Z,14.60
2023-05-15T02:58:20.593Z,15.73
2023-05-15T03:00:49.889Z,14.18
2023-05-15T03:03:21.378Z,15.77
2023-05-15T03:06:18.285Z,13.57
2023-05-15T03:08:47.430Z,15.02
2023-05-15T03:11:17.702Z,16.73
2023-05-15T03:14:06.013Z,15.55
2023-05-15T03:17:56.444Z,16.67
2023-05-15T03:20:20.991Z,13.88
2023-05-15T03:22:57.225Z,15.82
2023-05-15T03:25:30.674Z,14.27
2023-05-15T03:28:23.465Z,14.10
2023-05-15T03:31:35.209Z,14.82
2023-05-15T03:34:19.609Z,15.65
2023-05-15T03:37:05.096Z,17.30
2023-05-15T03:46:15.446Z,15.77
2023-05-15T03:48:49.805Z,17.40
2023-05-15T03:51:19.706Z,15.77
2023-05-15T03:53:52.595Z,12.45
2023-05-15T03:56:33.884Z,14.48
2023-05-15T03:59:05.093Z,17.40
2023-05-15T04:02:02.867Z,15.18
2023-05-15T04:04:47.689Z,13.48
2023-05-15T04:07:30.914Z,15.35
2023-05-15T04:10:04.632Z,13.43
2023-05-15T04:12:40.541Z,14.82
2023-05-15T04:18:45.438Z,15.35
2023-05-15T04:21:20.010Z,17.67
2023-05-15T04:24:07.405Z,16.17
2023-05-15T04:26:43.444Z,14.00
2023-05-15T04:29:51.040Z,14.30
2023-05-15T04:45:43.861Z,11.02
2023-05-15T04:48:27.268Z,10.10
2023-05-15T04:51:07.489Z,10.52
2023-05-15T04:54:03.807Z,11.13
2023-05-15T04:56:33.768Z,11.10
2023-05-15T04:59:15.403Z,11.38
2023-05-15T05:08:36.636Z,12.10
2023-05-15T05:15:40.600Z,13.35
2023-05-15T05:18:44.395Z,12.13
2023-05-15T05:32:49.017Z,12.45
2023-05-15T05:39:39.129Z,13.00
2023-05-15T05:42:37.964Z,17.38
2023-05-15T05:45:52.790Z,14.93
2023-05-15T05:49:07.915Z,14.98
2023-05-15T05:59:52.391Z,14.10
2023-05-15T06:10:58.671Z,15.98
2023-05-15T06:21:12.412Z,18.48
2023-05-15T06:27:50.695Z,16.55
2023-05-15T06:30:45.658Z,17.77
2023-05-15T06:34:00.521Z,16.67
2023-05-15T06:37:23.167Z,18.27
2023-05-15T06:40:34.319Z,21.63
2023-05-15T06:43:27.028Z,19.10
2023-05-15T06:46:07.098Z,18.27
2023-05-15T06:48:52.653Z,17.58
2023-05-15T06:51:27.241Z,20.35
2023-05-15T06:53:56.213Z,18.20
2023-05-15T06:56:36.337Z,18.88
2023-05-15T06:59:07.170Z,16.45
2023-05-15T07:01:36.100Z,17.13
2023-05-15T07:04:04.663Z,20.55
2023-05-15T07:06:33.116Z,19.08
2023-05-15T07:09:01.676Z,19.00
2023-05-15T07:11:33.220Z,15.90
2023-05-15T07:14:12.498Z,17.55
2023-05-15T07:16:53.550Z,18.33
2023-05-15T07:19:26.464Z,17.45
2023-05-15T07:22:03.107Z,17.10
2023-05-15T07:24:44.566Z,18.45
2023-05-15T07:30:11.887Z,18.75
2023-05-15T07:33:17.713Z,16.63
2023-05-15T07:35:46.175Z,17.45
2023-05-15T07:38:17.219Z,20.92
2023-05-15T07:40:45.686Z,16.48
2023-05-15T07:43:20.595Z,19.85
2023-05-15T07:46:04.778Z,21.55
2023-05-15T07:48:37.302Z,21.33
2023-05-15T07:51:06.867Z,19.85
2023-05-15T07:53:41.297Z,20.60
2023-05-15T07:56:09.939Z,20.90
2023-05-15T07:58:42.997Z,20.80
2023-05-15T08:01:19.795Z,20.58
2023-05-15T08:03:58.461Z,19.63
2023-05-15T08:06:33.053Z,21.90
2023-05-15T08:09:03.115Z,18.05
2023-05-15T08:11:35.662Z,18.90
2023-05-15T08:14:14.071Z,17.05
2023-05-15T08:16:56.797Z,21.05
2023-05-15T08:19:34.426Z,18.42
2023-05-15T08:22:11.926Z,15.93
2023-05-15T08:24:45.012Z,15.35
2023-05-15T08:27:17.172Z,17.08
2023-05-15T08:29:45.590Z,20.45
2023-05-15T08:32:27.986Z,15.57
2023-05-15T08:34:58.421Z,14.52
2023-05-15T08:37:38.005Z,15.07
2023-05-15T08:40:13.798Z,14.40
2023-05-15T08:42:59.291Z,15.77
2023-05-15T08:45:30.528Z,18.77
2023-05-15T08:48:07.246Z,16.80
2023-05-15T08:50:45.365Z,20.30
2023-05-15T08:53:13.992Z,19.98
2023-05-15T08:55:43.573Z,19.58
2023-05-15T08:58:12.656Z,19.05
2023-05-15T09:00:45.004Z,21.25
2023-05-15T09:03:29.437Z,19.85
2023-05-15T09:06:10.228Z,17.73
2023-05-15T09:08:45.285Z,19.27
2023-05-15T09:11:19.827Z,22.10
2023-05-15T09:13:58.091Z,22.23
2023-05-15T09:16:27.559Z,21.05
2023-05-15T09:19:00.901Z,21.83
2023-05-15T09:21:35.132Z,23.30
2023-05-15T09:24:35.183Z,21.05
2023-05-15T09:27:07.334Z,23.40
2023-05-15T09:29:40.541Z,19.33
2023-05-15T09:32:10.591Z,20.25
2023-05-15T09:34:44.554Z,21.90
2023-05-15T09:37:55.635Z,23.65
2023-05-15T09:44:40.379Z,23.05
2023-05-15T09:47:24.730Z,23.95
2023-05-15T09:50:35.077Z,23.92
2023-05-15T10:12:03.352Z,19.38
2023-05-15T10:31:54.738Z,21.40
2023-05-15T10:35:00.375Z,23.45
2023-05-15T10:38:43.320Z,24.23
2023-05-15T10:42:02.202Z,20.42
2023-05-15T11:56:17.998Z,25.20
2023-05-15T12:00:47.135Z,25.65
2023-05-15T12:03:54.428Z,23.30
2023-05-15T12:07:20.288Z,28.13
2023-05-15T12:10:07.996Z,24.27
2023-05-15T12:16:13.567Z,25.70
2023-05-15T12:18:51.030Z,25.80
2023-05-15T12:21:52.734Z,29.83
2023-05-15T12:24:29.985Z,31.80
2023-05-15T12:26:58.498Z,29.58
2023-05-15T12:29:30.928Z,28.85
2023-05-15T12:31:59.948Z,29.40
2023-05-15T12:34:48.859Z,27.52
2023-05-15T12:37:51.520Z,29.42
2023-05-15T12:40:59.914Z,26.50
2023-05-15T12:44:08.756Z,27.77
2023-05-15T12:47:02.000Z,25.77
2023-05-15T12:50:10.931Z,26.98
2023-05-15T12:56:30.227Z,25.00
2023-05-15T13:07:34.730Z,19.20
2023-05-15T13:33:14.530Z,14.27
2023-05-15T14:02:38.032Z,12.82
2023-05-15T14:25:19.273Z,12.65
2023-05-15T14:58:31.925Z,13.38
2023-05-15T15:02:06.711Z,13.30
2023-05-15T15:35:24.548Z,13.43
2023-05-15T15:42:12.934Z,12.93
2023-05-15T15:49:12.967Z,13.15
2023-05-15T15:56:01.014Z,12.32
2023-05-15T15:59:01.517Z,13.85
2023-05-15T16:01:53.543Z,14.05
2023-05-15T16:19:37.982Z,12.98
2023-05-15T16:40:11.817Z,11.67
2023-05-15T16:52:13.615Z,12.43
2023-05-15T16:55:08.814Z,12.90
2023-05-15T18:16:07.753Z,14.80
2023-05-15T18:19:27.706Z,14.57
2023-05-15T18:44:37.409Z,15.05
2023-05-15T18:52:07.923Z,15.57
2023-05-15T19:34:22.516Z,13.02
2023-05-15T19:37:30.355Z,12.88
2023-05-15T19:40:30.414Z,12.63
2023-05-15T20:12:40.384Z,12.70
2023-05-15T20:16:11.803Z,13.18
2023-05-15T20:23:39.560Z,11.88
2023-05-15T21:32:04.346Z,12.63
2023-05-15T21:35:36.492Z,13.70
2023-05-15T22:16:23.328Z,13.25
2023-05-15T22:54:15.882Z,15.93
2023-05-15T22:57:13.254Z,17.20
2023-05-15T23:00:10.309Z,18.67
2023-05-15T23:03:08.739Z,21.08
2023-05-15T23:06:14.301Z,17.92
2023-05-15T23:08:56.632Z,19.48
2023-05-15T23:11:45.557Z,17.90
2023-05-15T23:14:28.885Z,18.35
2023-05-15T23:17:30.875Z,19.40
2023-05-15T23:20:26.367Z,20.35
2023-05-15T23:26:50.036Z,22.27
2023-05-15T23:29:38.380Z,19.02
2023-05-15T23:32:30.872Z,19.15
2023-05-15T23:35:19.950Z,22.25
2023-05-15T23:38:01.185Z,21.02
2023-05-15T23:40:52.619Z,23.17
2023-05-15T23:43:45.797Z,19.15
2023-05-15T23:47:08.382Z,18.52
2023-05-15T23:50:17.820Z,19.75
2023-05-15T23:56:25.015Z,21.70
2023-05-15T23:59:24.032Z,18.33
